Live Weather Radar

YMHB Hobart METAR

METAR YMHB 190430Z 16012KT CAVOK 26/10 Q1021 RMK RF00.0/000.0

YMHB Hobart Terminal Area Forecast (TAF)

TAF YMHB 182304Z 1900/1924 15012KT CAVOK FM191100 VRB05KT CAVOK FM191600 34009KT CAVOK RMK T 24 25 23 19 Q 1023 1023 1022 1024